MSR627 HECA-ORBI
Flight info
| Callsign | MSR627 |
|---|---|
| Flight time | 1h 44m |
| Altitude | 37000 |
| Route | CVO L677 MENLI N697 SISIK W976 TAKSU L550 KARIK B411 ULINA M319 SESMO DCT KULDI DCT ORNAL L200 SILBO |
| Aircraft | B738/M-SDE2E3FGHIRWXY/LB1 |
Departure
| Time | 2026-05-04 14:43 |
|---|---|
| Airport | Cairo International Airport (HECA) |
Arrival
| Time | 2026-05-04 16:28 |
|---|---|
| Airport | Baghdad International Airport / New Al Muthana Air Base (ORBI) |
| Time | Latitude | Longitude | Altitude | Speed | Heading |
|---|---|---|---|---|---|
| 2026-05-04 13:53 | 30.10737 | 31.39686 | 369 ft | 0 kts | 256° |
| 2026-05-04 14:30 | 30.10739 | 31.39695 | 369 ft | 4 kts | 255° |
| 2026-05-04 14:30 | 30.10754 | 31.39754 | 369 ft | 4 kts | 235° |
| 2026-05-04 14:31 | 30.10772 | 31.39771 | 369 ft | 4 kts | 186° |
| 2026-05-04 14:31 | 30.10789 | 31.39770 | 369 ft | 0 kts | 166° |
| 2026-05-04 14:36 | 30.10776 | 31.39774 | 369 ft | 6 kts | 166° |
| 2026-05-04 14:36 | 30.10700 | 31.39796 | 369 ft | 16 kts | 166° |
| 2026-05-04 14:37 | 30.10587 | 31.39831 | 371 ft | 16 kts | 166° |
| 2026-05-04 14:37 | 30.10491 | 31.39884 | 377 ft | 16 kts | 125° |
| 2026-05-04 14:37 | 30.10520 | 31.40012 | 378 ft | 21 kts | 49° |
| 2026-05-04 14:37 | 30.10617 | 31.40140 | 383 ft | 21 kts | 48° |
| 2026-05-04 14:38 | 30.10712 | 31.40271 | 386 ft | 22 kts | 47° |
| 2026-05-04 14:38 | 30.10821 | 31.40416 | 380 ft | 26 kts | 50° |
| 2026-05-04 14:38 | 30.10943 | 31.40575 | 377 ft | 26 kts | 51° |
| 2026-05-04 14:38 | 30.11055 | 31.40724 | 378 ft | 22 kts | 49° |
| 2026-05-04 14:39 | 30.11048 | 31.40882 | 388 ft | 19 kts | 62° |
| 2026-05-04 14:39 | 30.11135 | 31.40992 | 388 ft | 19 kts | 49° |
| 2026-05-04 14:39 | 30.11228 | 31.41114 | 388 ft | 22 kts | 49° |
| 2026-05-04 14:40 | 30.11459 | 31.41418 | 388 ft | 26 kts | 48° |
| 2026-05-04 14:40 | 30.11572 | 31.41572 | 388 ft | 25 kts | 49° |
| 2026-05-04 14:40 | 30.11684 | 31.41716 | 388 ft | 23 kts | 47° |
| 2026-05-04 14:40 | 30.11786 | 31.41852 | 388 ft | 23 kts | 49° |
| 2026-05-04 14:41 | 30.11894 | 31.41993 | 388 ft | 23 kts | 49° |
| 2026-05-04 14:41 | 30.11998 | 31.42130 | 388 ft | 23 kts | 48° |
| 2026-05-04 14:41 | 30.12244 | 31.42450 | 388 ft | 30 kts | 49° |
| 2026-05-04 14:42 | 30.12473 | 31.42809 | 388 ft | 26 kts | 87° |
| 2026-05-04 14:42 | 30.12357 | 31.42929 | 387 ft | 24 kts | 180° |
| 2026-05-04 14:42 | 30.12256 | 31.42873 | 386 ft | 16 kts | 229° |
| 2026-05-04 14:43 | 30.12163 | 31.42749 | 386 ft | 45 kts | 229° |
| 2026-05-04 14:43 | 30.11799 | 31.42261 | 387 ft | 113 kts | 228° |
| 2026-05-04 14:43 | 30.11154 | 31.41410 | 407 ft | 165 kts | 231° |
| 2026-05-04 14:43 | 30.10365 | 31.40405 | 1074 ft | 165 kts | 231° |
| 2026-05-04 14:44 | 30.09558 | 31.39465 | 1734 ft | 173 kts | 232° |
| 2026-05-04 14:44 | 30.08568 | 31.38628 | 2291 ft | 192 kts | 204° |
| 2026-05-04 14:44 | 30.07109 | 31.38547 | 2580 ft | 227 kts | 167° |
| 2026-05-04 14:44 | 30.05679 | 31.39485 | 2814 ft | 250 kts | 134° |
| 2026-05-04 14:45 | 30.04564 | 31.41104 | 3186 ft | 264 kts | 124° |
| 2026-05-04 14:45 | 30.03518 | 31.42905 | 3510 ft | 282 kts | 122° |
| 2026-05-04 14:45 | 30.02444 | 31.44821 | 4328 ft | 285 kts | 122° |
| 2026-05-04 14:45 | 30.01368 | 31.46742 | 5136 ft | 289 kts | 122° |
| 2026-05-04 14:46 | 30.00280 | 31.48673 | 6040 ft | 286 kts | 122° |
| 2026-05-04 14:46 | 29.99191 | 31.50592 | 6937 ft | 287 kts | 123° |
| 2026-05-04 14:46 | 29.98081 | 31.52538 | 7575 ft | 293 kts | 124° |
| 2026-05-04 14:46 | 29.96938 | 31.54534 | 8233 ft | 302 kts | 124° |
| 2026-05-04 14:47 | 29.95768 | 31.56573 | 8922 ft | 308 kts | 125° |
| 2026-05-04 14:47 | 29.94577 | 31.58643 | 9619 ft | 314 kts | 126° |
| 2026-05-04 14:47 | 29.93353 | 31.60767 | 10269 ft | 321 kts | 126° |
| 2026-05-04 14:47 | 29.92072 | 31.62986 | 10492 ft | 344 kts | 126° |
| 2026-05-04 14:48 | 29.90704 | 31.65352 | 10660 ft | 366 kts | 126° |
| 2026-05-04 14:48 | 29.89264 | 31.67843 | 11044 ft | 379 kts | 126° |
| 2026-05-04 14:48 | 29.87793 | 31.70392 | 11634 ft | 385 kts | 126° |
| 2026-05-04 14:48 | 29.86298 | 31.72982 | 12296 ft | 390 kts | 126° |
| 2026-05-04 14:49 | 29.84787 | 31.75597 | 12925 ft | 396 kts | 126° |
| 2026-05-04 14:49 | 29.83249 | 31.78257 | 13560 ft | 402 kts | 127° |
| 2026-05-04 14:49 | 29.81689 | 31.80951 | 14187 ft | 407 kts | 127° |
| 2026-05-04 14:49 | 29.80112 | 31.83670 | 14828 ft | 410 kts | 127° |
| 2026-05-04 14:50 | 29.78629 | 31.86508 | 15496 ft | 417 kts | 119° |
| 2026-05-04 14:50 | 29.77546 | 31.89688 | 16147 ft | 425 kts | 108° |
| 2026-05-04 14:50 | 29.76809 | 31.92944 | 16765 ft | 430 kts | 105° |
| 2026-05-04 14:50 | 29.76096 | 31.96301 | 17367 ft | 435 kts | 105° |
| 2026-05-04 14:51 | 29.75368 | 31.99760 | 17962 ft | 440 kts | 105° |
| 2026-05-04 14:51 | 29.74637 | 32.03195 | 18536 ft | 445 kts | 106° |
| 2026-05-04 14:51 | 29.73886 | 32.06666 | 19072 ft | 449 kts | 106° |
| 2026-05-04 14:51 | 29.73122 | 32.10145 | 19637 ft | 451 kts | 107° |
| 2026-05-04 14:52 | 29.72348 | 32.13637 | 20181 ft | 454 kts | 107° |
| 2026-05-04 14:52 | 29.71558 | 32.17183 | 20707 ft | 458 kts | 107° |
| 2026-05-04 14:52 | 29.70772 | 32.20699 | 21198 ft | 462 kts | 107° |
| 2026-05-04 14:52 | 29.69954 | 32.24355 | 21715 ft | 466 kts | 107° |
| 2026-05-04 14:53 | 29.69145 | 32.27963 | 22218 ft | 469 kts | 107° |
| 2026-05-04 14:53 | 29.68324 | 32.31623 | 22705 ft | 473 kts | 107° |
| 2026-05-04 14:53 | 29.67500 | 32.35297 | 23187 ft | 477 kts | 107° |
| 2026-05-04 14:53 | 29.66675 | 32.38968 | 23661 ft | 480 kts | 108° |
| 2026-05-04 14:54 | 29.65835 | 32.42701 | 24044 ft | 483 kts | 108° |
| 2026-05-04 14:54 | 29.64988 | 32.46461 | 24458 ft | 486 kts | 108° |
| 2026-05-04 14:54 | 29.64137 | 32.50234 | 24867 ft | 489 kts | 108° |
| 2026-05-04 14:54 | 29.63281 | 32.54023 | 25255 ft | 492 kts | 108° |
| 2026-05-04 14:55 | 29.62419 | 32.57832 | 25639 ft | 495 kts | 108° |
| 2026-05-04 14:55 | 29.61548 | 32.61679 | 26021 ft | 497 kts | 108° |
| 2026-05-04 14:55 | 29.60678 | 32.65522 | 26414 ft | 499 kts | 107° |
| 2026-05-04 14:55 | 29.60025 | 32.69447 | 26815 ft | 504 kts | 98° |
| 2026-05-04 14:56 | 29.59881 | 32.73487 | 27174 ft | 508 kts | 90° |
| 2026-05-04 14:56 | 29.59943 | 32.77560 | 27534 ft | 511 kts | 90° |
| 2026-05-04 14:56 | 29.60037 | 32.81644 | 27849 ft | 515 kts | 89° |
| 2026-05-04 14:56 | 29.60129 | 32.85781 | 28186 ft | 517 kts | 90° |
| 2026-05-04 14:57 | 29.60206 | 32.89928 | 28526 ft | 520 kts | 90° |
| 2026-05-04 14:57 | 29.60265 | 32.94070 | 28886 ft | 521 kts | 90° |
| 2026-05-04 14:57 | 29.60311 | 32.98254 | 29220 ft | 524 kts | 91° |
| 2026-05-04 14:57 | 29.60348 | 33.02451 | 29538 ft | 527 kts | 91° |
| 2026-05-04 14:58 | 29.60381 | 33.06676 | 29850 ft | 529 kts | 91° |
| 2026-05-04 14:58 | 29.60413 | 33.10908 | 30140 ft | 532 kts | 91° |
| 2026-05-04 14:58 | 29.60444 | 33.15140 | 30379 ft | 534 kts | 91° |
| 2026-05-04 14:58 | 29.60476 | 33.19437 | 30626 ft | 536 kts | 91° |
| 2026-05-04 14:59 | 29.60507 | 33.23717 | 30935 ft | 536 kts | 91° |
| 2026-05-04 14:59 | 29.60538 | 33.27980 | 31322 ft | 535 kts | 91° |
| 2026-05-04 14:59 | 29.60595 | 33.36508 | 32111 ft | 532 kts | 91° |
| 2026-05-04 15:00 | 29.60621 | 33.40731 | 32403 ft | 532 kts | 91° |
| 2026-05-04 15:00 | 29.60645 | 33.44964 | 32681 ft | 533 kts | 91° |
| 2026-05-04 15:00 | 29.60667 | 33.49132 | 33001 ft | 532 kts | 91° |
| 2026-05-04 15:01 | 29.60709 | 33.57497 | 33692 ft | 530 kts | 91° |
| 2026-05-04 15:01 | 29.60728 | 33.61746 | 34006 ft | 530 kts | 91° |
| 2026-05-04 15:01 | 29.60746 | 33.65937 | 34253 ft | 530 kts | 91° |
| 2026-05-04 15:01 | 29.60762 | 33.70166 | 34468 ft | 531 kts | 91° |
| 2026-05-04 15:02 | 29.60777 | 33.74429 | 34650 ft | 533 kts | 91° |
| 2026-05-04 15:02 | 29.60791 | 33.78695 | 34872 ft | 533 kts | 91° |
| 2026-05-04 15:02 | 29.60803 | 33.82958 | 35137 ft | 533 kts | 92° |
| 2026-05-04 15:02 | 29.60804 | 33.87208 | 35389 ft | 532 kts | 92° |
| 2026-05-04 15:03 | 29.60796 | 33.91466 | 35581 ft | 533 kts | 92° |
| 2026-05-04 15:03 | 29.60785 | 33.95716 | 35773 ft | 534 kts | 92° |
| 2026-05-04 15:03 | 29.60773 | 33.99994 | 36026 ft | 533 kts | 92° |
| 2026-05-04 15:03 | 29.60761 | 34.04223 | 36339 ft | 531 kts | 92° |
| 2026-05-04 15:04 | 29.60750 | 34.08441 | 36681 ft | 528 kts | 92° |
| 2026-05-04 15:04 | 29.60738 | 34.12659 | 36997 ft | 526 kts | 93° |
| 2026-05-04 15:04 | 29.60708 | 34.21122 | 37037 ft | 532 kts | 93° |
| 2026-05-04 15:05 | 29.60694 | 34.29620 | 37023 ft | 528 kts | 92° |
| 2026-05-04 15:05 | 29.60709 | 34.37966 | 37025 ft | 524 kts | 92° |
| 2026-05-04 15:06 | 29.60713 | 34.46324 | 37027 ft | 523 kts | 93° |
| 2026-05-04 15:07 | 29.59868 | 34.58601 | 37032 ft | 502 kts | 120° |
| 2026-05-04 15:07 | 29.58282 | 34.62135 | 37009 ft | 493 kts | 133° |
| 2026-05-04 15:07 | 29.56130 | 34.65101 | 37042 ft | 477 kts | 147° |
| 2026-05-04 15:08 | 29.50989 | 34.69842 | 37022 ft | 477 kts | 152° |
| 2026-05-04 15:08 | 29.46010 | 34.75041 | 36966 ft | 502 kts | 134° |
| 2026-05-04 15:08 | 29.44231 | 34.78530 | 37001 ft | 512 kts | 120° |
| 2026-05-04 15:09 | 29.43204 | 34.82462 | 37015 ft | 520 kts | 104° |
| 2026-05-04 15:09 | 29.42434 | 34.89367 | 37002 ft | 520 kts | 102° |
| 2026-05-04 15:10 | 29.42961 | 34.97624 | 37034 ft | 527 kts | 71° |
| 2026-05-04 15:10 | 29.44454 | 35.01457 | 36984 ft | 525 kts | 54° |
| 2026-05-04 15:11 | 29.51488 | 35.10834 | 37032 ft | 519 kts | 44° |
| 2026-05-04 15:11 | 29.56208 | 35.17133 | 37026 ft | 522 kts | 45° |
| 2026-05-04 15:12 | 29.61492 | 35.22656 | 37017 ft | 511 kts | 27° |
| 2026-05-04 15:12 | 29.67476 | 35.27125 | 37013 ft | 515 kts | 26° |
| 2026-05-04 15:13 | 29.73504 | 35.31561 | 37044 ft | 515 kts | 26° |
| 2026-05-04 15:13 | 29.79501 | 35.36062 | 37030 ft | 516 kts | 27° |
| 2026-05-04 15:14 | 29.85498 | 35.40622 | 37021 ft | 517 kts | 27° |
| 2026-05-04 15:14 | 29.91487 | 35.45195 | 37031 ft | 516 kts | 27° |
| 2026-05-04 15:15 | 29.97418 | 35.49725 | 37046 ft | 516 kts | 27° |
| 2026-05-04 15:15 | 30.03402 | 35.54298 | 37024 ft | 516 kts | 27° |
| 2026-05-04 15:16 | 30.12313 | 35.61121 | 37068 ft | 514 kts | 27° |
| 2026-05-04 15:17 | 30.21248 | 35.67976 | 37042 ft | 514 kts | 27° |
| 2026-05-04 15:17 | 30.30172 | 35.74839 | 37089 ft | 513 kts | 27° |
| 2026-05-04 15:18 | 30.36125 | 35.79425 | 37033 ft | 513 kts | 27° |
| 2026-05-04 15:19 | 30.45039 | 35.86304 | 37031 ft | 513 kts | 27° |
| 2026-05-04 15:19 | 30.53955 | 35.93201 | 37038 ft | 514 kts | 27° |
| 2026-05-04 15:20 | 30.59903 | 35.97810 | 37028 ft | 515 kts | 27° |
| 2026-05-04 15:20 | 30.65853 | 36.02429 | 37036 ft | 515 kts | 27° |
| 2026-05-04 15:21 | 30.71821 | 36.07068 | 37027 ft | 516 kts | 27° |
| 2026-05-04 15:22 | 30.80787 | 36.14051 | 37018 ft | 517 kts | 27° |
| 2026-05-04 15:22 | 30.89756 | 36.21053 | 37034 ft | 518 kts | 27° |
| 2026-05-04 15:23 | 30.95736 | 36.25731 | 37020 ft | 518 kts | 27° |
| 2026-05-04 15:23 | 31.01711 | 36.30411 | 37024 ft | 517 kts | 27° |
| 2026-05-04 15:24 | 31.13659 | 36.39793 | 37036 ft | 517 kts | 27° |
| 2026-05-04 15:25 | 31.19626 | 36.44489 | 37034 ft | 517 kts | 27° |
| 2026-05-04 15:26 | 31.28576 | 36.51546 | 37022 ft | 517 kts | 27° |
| 2026-05-04 15:26 | 31.37403 | 36.58853 | 37028 ft | 520 kts | 31° |
| 2026-05-04 15:27 | 31.46003 | 36.66557 | 37025 ft | 520 kts | 31° |
| 2026-05-04 15:28 | 31.54644 | 36.74218 | 37020 ft | 519 kts | 31° |
| 2026-05-04 15:29 | 31.63321 | 36.81867 | 37020 ft | 520 kts | 30° |
| 2026-05-04 15:30 | 31.83602 | 36.99835 | 36976 ft | 523 kts | 31° |
| 2026-05-04 15:31 | 31.92302 | 37.07576 | 37003 ft | 524 kts | 31° |
| 2026-05-04 15:32 | 32.06842 | 37.20555 | 36979 ft | 524 kts | 31° |
| 2026-05-04 15:34 | 32.21332 | 37.33543 | 36976 ft | 523 kts | 31° |
| 2026-05-04 15:34 | 32.29968 | 37.41308 | 36969 ft | 523 kts | 31° |
| 2026-05-04 15:35 | 32.38636 | 37.49122 | 36944 ft | 522 kts | 31° |
| 2026-05-04 15:36 | 32.47290 | 37.56941 | 36966 ft | 523 kts | 31° |
| 2026-05-04 15:36 | 32.53078 | 37.62183 | 36962 ft | 523 kts | 31° |
| 2026-05-04 15:37 | 32.58854 | 37.67422 | 36982 ft | 524 kts | 31° |
| 2026-05-04 15:37 | 32.64638 | 37.72678 | 36938 ft | 525 kts | 31° |
| 2026-05-04 15:38 | 32.70438 | 37.77959 | 36949 ft | 525 kts | 31° |
| 2026-05-04 15:38 | 32.76192 | 37.83334 | 36932 ft | 531 kts | 39° |
| 2026-05-04 15:39 | 32.78689 | 37.86597 | 36965 ft | 537 kts | 50° |
| 2026-05-04 15:39 | 32.80739 | 37.90303 | 36927 ft | 540 kts | 60° |
| 2026-05-04 15:39 | 32.83410 | 37.98641 | 36933 ft | 539 kts | 75° |
| 2026-05-04 15:40 | 32.84514 | 38.02894 | 36932 ft | 540 kts | 73° |
| 2026-05-04 15:40 | 32.86880 | 38.11340 | 36934 ft | 541 kts | 72° |
| 2026-05-04 15:41 | 32.89319 | 38.19814 | 36910 ft | 541 kts | 72° |
| 2026-05-04 15:41 | 32.91735 | 38.28274 | 36935 ft | 541 kts | 72° |
| 2026-05-04 15:42 | 32.94141 | 38.36768 | 36937 ft | 540 kts | 72° |
| 2026-05-04 15:42 | 32.96525 | 38.45209 | 36939 ft | 541 kts | 72° |
| 2026-05-04 15:43 | 32.98926 | 38.53698 | 36925 ft | 540 kts | 72° |
| 2026-05-04 15:43 | 33.01324 | 38.62165 | 36918 ft | 539 kts | 72° |
| 2026-05-04 15:44 | 33.03698 | 38.70592 | 36963 ft | 537 kts | 73° |
| 2026-05-04 15:44 | 33.06013 | 38.78915 | 36926 ft | 537 kts | 73° |
| 2026-05-04 15:45 | 33.08361 | 38.87380 | 36923 ft | 536 kts | 73° |
| 2026-05-04 15:45 | 33.10063 | 38.95902 | 36920 ft | 528 kts | 89° |
| 2026-05-04 15:46 | 33.10152 | 39.04572 | 36919 ft | 522 kts | 96° |
| 2026-05-04 15:46 | 33.10053 | 39.13234 | 36909 ft | 523 kts | 96° |
| 2026-05-04 15:47 | 33.10010 | 39.21927 | 36924 ft | 525 kts | 96° |
| 2026-05-04 15:47 | 33.10004 | 39.30703 | 36913 ft | 527 kts | 96° |
| 2026-05-04 15:48 | 33.09999 | 39.39381 | 36890 ft | 527 kts | 96° |
| 2026-05-04 15:48 | 33.09977 | 39.51013 | 36910 ft | 529 kts | 96° |
| 2026-05-04 15:49 | 33.09950 | 39.59832 | 36874 ft | 529 kts | 96° |
| 2026-05-04 15:49 | 33.09918 | 39.68604 | 36937 ft | 530 kts | 96° |
| 2026-05-04 15:50 | 33.09880 | 39.77377 | 36913 ft | 531 kts | 96° |
| 2026-05-04 15:50 | 33.09836 | 39.86145 | 36904 ft | 530 kts | 96° |
| 2026-05-04 15:51 | 33.09786 | 39.94938 | 36914 ft | 530 kts | 96° |
| 2026-05-04 15:51 | 33.09720 | 40.03707 | 36876 ft | 529 kts | 97° |
| 2026-05-04 15:52 | 33.09647 | 40.12472 | 36913 ft | 528 kts | 97° |
| 2026-05-04 15:52 | 33.09569 | 40.21172 | 36953 ft | 527 kts | 97° |
| 2026-05-04 15:53 | 33.09485 | 40.29922 | 36914 ft | 527 kts | 97° |
| 2026-05-04 15:53 | 33.09396 | 40.38664 | 36921 ft | 526 kts | 97° |
| 2026-05-04 15:54 | 33.09300 | 40.47385 | 36915 ft | 526 kts | 97° |
| 2026-05-04 15:54 | 33.09200 | 40.56064 | 36911 ft | 525 kts | 97° |
| 2026-05-04 15:55 | 33.09092 | 40.64816 | 36917 ft | 525 kts | 97° |
| 2026-05-04 15:55 | 33.08978 | 40.73540 | 36921 ft | 525 kts | 97° |
| 2026-05-04 15:56 | 33.08859 | 40.82199 | 36917 ft | 525 kts | 97° |
| 2026-05-04 15:56 | 33.08734 | 40.90853 | 36908 ft | 525 kts | 97° |
| 2026-05-04 15:57 | 33.08603 | 40.99563 | 36913 ft | 525 kts | 97° |
| 2026-05-04 15:57 | 33.08465 | 41.08253 | 36906 ft | 525 kts | 97° |
| 2026-05-04 15:58 | 33.08322 | 41.17003 | 36892 ft | 526 kts | 97° |
| 2026-05-04 15:58 | 33.08074 | 41.25730 | 36921 ft | 524 kts | 99° |
| 2026-05-04 15:59 | 33.07695 | 41.34421 | 36918 ft | 525 kts | 100° |
| 2026-05-04 15:59 | 33.07500 | 41.38780 | 36792 ft | 528 kts | 99° |
| 2026-05-04 15:59 | 33.07307 | 41.43162 | 36287 ft | 532 kts | 99° |
| 2026-05-04 16:00 | 33.07123 | 41.47504 | 35768 ft | 530 kts | 99° |
| 2026-05-04 16:00 | 33.06942 | 41.51867 | 35182 ft | 530 kts | 99° |
| 2026-05-04 16:00 | 33.06759 | 41.56286 | 34546 ft | 531 kts | 99° |
| 2026-05-04 16:00 | 33.06576 | 41.60676 | 33913 ft | 532 kts | 99° |
| 2026-05-04 16:01 | 33.06392 | 41.65067 | 33420 ft | 529 kts | 99° |
| 2026-05-04 16:01 | 33.06208 | 41.69435 | 32938 ft | 525 kts | 99° |
| 2026-05-04 16:01 | 33.06025 | 41.73743 | 32468 ft | 520 kts | 99° |
| 2026-05-04 16:01 | 33.05840 | 41.78026 | 31999 ft | 516 kts | 99° |
| 2026-05-04 16:02 | 33.05654 | 41.82281 | 31582 ft | 512 kts | 99° |
| 2026-05-04 16:02 | 33.05467 | 41.86523 | 31152 ft | 508 kts | 99° |
| 2026-05-04 16:02 | 33.05093 | 41.94859 | 30294 ft | 501 kts | 99° |
| 2026-05-04 16:03 | 33.04906 | 41.98994 | 29821 ft | 497 kts | 99° |
| 2026-05-04 16:03 | 33.04719 | 42.03089 | 29343 ft | 493 kts | 99° |
| 2026-05-04 16:03 | 33.04534 | 42.07152 | 28904 ft | 488 kts | 99° |
| 2026-05-04 16:03 | 33.04348 | 42.11173 | 28449 ft | 483 kts | 99° |
| 2026-05-04 16:04 | 33.04165 | 42.15115 | 28013 ft | 479 kts | 99° |
| 2026-05-04 16:04 | 33.03794 | 42.22983 | 27136 ft | 470 kts | 99° |
| 2026-05-04 16:04 | 33.03611 | 42.26844 | 26728 ft | 466 kts | 99° |
| 2026-05-04 16:05 | 33.03428 | 42.30684 | 26297 ft | 462 kts | 99° |
| 2026-05-04 16:05 | 33.03247 | 42.34494 | 25901 ft | 458 kts | 99° |
| 2026-05-04 16:05 | 33.02947 | 42.41935 | 25409 ft | 446 kts | 99° |
| 2026-05-04 16:06 | 33.02809 | 42.45607 | 25140 ft | 440 kts | 99° |
| 2026-05-04 16:06 | 33.02429 | 42.55267 | 24107 ft | 435 kts | 99° |
| 2026-05-04 16:07 | 33.02233 | 42.60052 | 23537 ft | 434 kts | 99° |
| 2026-05-04 16:07 | 33.01791 | 42.70711 | 22176 ft | 428 kts | 99° |
| 2026-05-04 16:08 | 33.01643 | 42.74245 | 21761 ft | 425 kts | 99° |
| 2026-05-04 16:08 | 33.01199 | 42.84688 | 20528 ft | 418 kts | 99° |
| 2026-05-04 16:09 | 33.00901 | 42.91570 | 19702 ft | 415 kts | 100° |
| 2026-05-04 16:09 | 33.00600 | 42.98408 | 18869 ft | 411 kts | 100° |
| 2026-05-04 16:10 | 33.00300 | 43.05186 | 18014 ft | 408 kts | 99° |
| 2026-05-04 16:11 | 32.99850 | 43.15191 | 16769 ft | 399 kts | 99° |
| 2026-05-04 16:11 | 32.99700 | 43.18488 | 16371 ft | 397 kts | 99° |
| 2026-05-04 16:12 | 32.99602 | 43.28185 | 15473 ft | 385 kts | 90° |
| 2026-05-04 16:12 | 33.00395 | 43.37650 | 14342 ft | 383 kts | 89° |
| 2026-05-04 16:13 | 33.00900 | 43.43900 | 13624 ft | 379 kts | 89° |
| 2026-05-04 16:13 | 33.01369 | 43.50029 | 13123 ft | 366 kts | 90° |
| 2026-05-04 16:14 | 33.01812 | 43.56034 | 12425 ft | 361 kts | 90° |
| 2026-05-04 16:14 | 33.02242 | 43.61931 | 11803 ft | 354 kts | 89° |
| 2026-05-04 16:15 | 33.02859 | 43.70407 | 11357 ft | 326 kts | 89° |
| 2026-05-04 16:16 | 33.03237 | 43.75632 | 10713 ft | 311 kts | 90° |
| 2026-05-04 16:16 | 33.03773 | 43.83211 | 9457 ft | 301 kts | 90° |
| 2026-05-04 16:17 | 33.04122 | 43.88154 | 8571 ft | 295 kts | 89° |
| 2026-05-04 16:18 | 33.04622 | 43.95273 | 7507 ft | 280 kts | 89° |
| 2026-05-04 16:18 | 33.04782 | 43.97545 | 7253 ft | 272 kts | 89° |
| 2026-05-04 16:19 | 33.05244 | 44.04227 | 6538 ft | 279 kts | 88° |
| 2026-05-04 16:19 | 33.05565 | 44.08924 | 6018 ft | 284 kts | 87° |
| 2026-05-04 16:20 | 33.06043 | 44.15858 | 5263 ft | 277 kts | 86° |
| 2026-05-04 16:20 | 33.06354 | 44.20415 | 4736 ft | 274 kts | 85° |
| 2026-05-04 16:21 | 33.06809 | 44.27120 | 4038 ft | 265 kts | 84° |
| 2026-05-04 16:22 | 33.07047 | 44.30663 | 3846 ft | 252 kts | 84° |
| 2026-05-04 16:22 | 33.09351 | 44.34992 | 3419 ft | 208 kts | 355° |
| 2026-05-04 16:23 | 33.13215 | 44.33508 | 2856 ft | 185 kts | 332° |
| 2026-05-04 16:24 | 33.17404 | 44.30650 | 1983 ft | 149 kts | 330° |
| 2026-05-04 16:25 | 33.19131 | 44.29466 | 1558 ft | 142 kts | 330° |
| 2026-05-04 16:26 | 33.22519 | 44.27145 | 828 ft | 142 kts | 331° |
| 2026-05-04 16:26 | 33.25178 | 44.25318 | 218 ft | 144 kts | 331° |
| 2026-05-04 16:27 | 33.26612 | 44.24334 | 139 ft | 79 kts | 330° |
| 2026-05-04 16:28 | 33.27328 | 44.23773 | 137 ft | 22 kts | 300° |
| 2026-05-04 16:28 | 33.27379 | 44.23299 | 139 ft | 21 kts | 240° |
| 2026-05-04 16:29 | 33.27102 | 44.22939 | 139 ft | 0 kts | 239° |
| 2026-05-04 16:30 | 33.27071 | 44.22934 | 139 ft | 6 kts | 148° |
| 2026-05-04 16:31 | 33.27011 | 44.22998 | 139 ft | 5 kts | 138° |
| 2026-05-04 16:31 | 33.26994 | 44.23016 | 139 ft | 0 kts | 137° |